sensor_id;sensor_type;location;lat;lon;timestamp;temperature;humidity
24041;DHT22;12246;47.612;18.906;2022-08-25T00:00:24;19.70;99.90
24041;DHT22;12246;47.612;18.906;2022-08-25T00:03:18;19.70;99.90
24041;DHT22;12246;47.612;18.906;2022-08-25T00:06:13;19.70;99.90
24041;DHT22;12246;47.612;18.906;2022-08-25T00:09:07;19.70;99.90
24041;DHT22;12246;47.612;18.906;2022-08-25T00:12:00;19.80;99.90
24041;DHT22;12246;47.612;18.906;2022-08-25T00:14:52;19.80;99.90
24041;DHT22;12246;47.612;18.906;2022-08-25T00:17:44;19.70;99.90
24041;DHT22;12246;47.612;18.906;2022-08-25T00:20:36;19.60;99.90
24041;DHT22;12246;47.612;18.906;2022-08-25T00:23:34;19.60;99.90
24041;DHT22;12246;47.612;18.906;2022-08-25T00:26:26;19.60;99.90
24041;DHT22;12246;47.612;18.906;2022-08-25T00:29:20;19.60;99.90
24041;DHT22;12246;47.612;18.906;2022-08-25T00:32:12;19.50;99.90
24041;DHT22;12246;47.612;18.906;2022-08-25T00:35:05;19.60;99.90
24041;DHT22;12246;47.612;18.906;2022-08-25T00:37:57;19.60;99.90
24041;DHT22;12246;47.612;18.906;2022-08-25T00:40:50;19.50;99.90
24041;DHT22;12246;47.612;18.906;2022-08-25T00:43:59;19.60;99.90
24041;DHT22;12246;47.612;18.906;2022-08-25T00:46:56;19.60;99.90
24041;DHT22;12246;47.612;18.906;2022-08-25T00:49:53;19.60;99.90
24041;DHT22;12246;47.612;18.906;2022-08-25T00:52:50;19.50;99.90
24041;DHT22;12246;47.612;18.906;2022-08-25T00:55:43;19.40;99.90
24041;DHT22;12246;47.612;18.906;2022-08-25T00:58:35;19.40;99.90
24041;DHT22;12246;47.612;18.906;2022-08-25T01:01:28;19.40;99.90
24041;DHT22;12246;47.612;18.906;2022-08-25T01:04:21;19.40;99.90
24041;DHT22;12246;47.612;18.906;2022-08-25T01:07:16;19.50;99.90
24041;DHT22;12246;47.612;18.906;2022-08-25T01:10:10;19.50;99.90
24041;DHT22;12246;47.612;18.906;2022-08-25T01:13:23;19.50;99.90
24041;DHT22;12246;47.612;18.906;2022-08-25T01:16:17;19.50;99.90
24041;DHT22;12246;47.612;18.906;2022-08-25T01:19:13;19.40;99.90
24041;DHT22;12246;47.612;18.906;2022-08-25T01:22:07;19.40;99.90
24041;DHT22;12246;47.612;18.906;2022-08-25T01:25:06;19.30;99.90
24041;DHT22;12246;47.612;18.906;2022-08-25T01:28:03;19.30;99.90
24041;DHT22;12246;47.612;18.906;2022-08-25T01:30:56;19.30;99.90
24041;DHT22;12246;47.612;18.906;2022-08-25T01:33:48;19.20;99.90
24041;DHT22;12246;47.612;18.906;2022-08-25T01:36:43;19.10;99.90
24041;DHT22;12246;47.612;18.906;2022-08-25T01:39:35;19.10;99.90
24041;DHT22;12246;47.612;18.906;2022-08-25T01:42:32;19.10;99.90
24041;DHT22;12246;47.612;18.906;2022-08-25T01:45:25;19.10;99.90
24041;DHT22;12246;47.612;18.906;2022-08-25T01:48:19;19.10;99.90
24041;DHT22;12246;47.612;18.906;2022-08-25T01:51:14;19.20;99.90
24041;DHT22;12246;47.612;18.906;2022-08-25T01:54:06;19.20;99.90
24041;DHT22;12246;47.612;18.906;2022-08-25T01:56:59;19.20;99.90
24041;DHT22;12246;47.612;18.906;2022-08-25T01:59:51;19.30;99.90
24041;DHT22;12246;47.612;18.906;2022-08-25T02:02:43;19.20;99.90
24041;DHT22;12246;47.612;18.906;2022-08-25T02:05:35;19.20;99.90
24041;DHT22;12246;47.612;18.906;2022-08-25T02:08:28;19.20;99.90
24041;DHT22;12246;47.612;18.906;2022-08-25T02:11:21;19.20;99.90
24041;DHT22;12246;47.612;18.906;2022-08-25T02:14:15;19.20;99.90
24041;DHT22;12246;47.612;18.906;2022-08-25T02:17:10;19.10;99.90
24041;DHT22;12246;47.612;18.906;2022-08-25T02:20:04;19.00;99.90
24041;DHT22;12246;47.612;18.906;2022-08-25T02:22:57;19.00;99.90
24041;DHT22;12246;47.612;18.906;2022-08-25T02:25:49;19.00;99.90
24041;DHT22;12246;47.612;18.906;2022-08-25T02:28:43;19.00;99.90
24041;DHT22;12246;47.612;18.906;2022-08-25T02:31:36;19.10;99.90
24041;DHT22;12246;47.612;18.906;2022-08-25T02:34:29;19.00;99.90
24041;DHT22;12246;47.612;18.906;2022-08-25T02:37:21;19.10;99.90
24041;DHT22;12246;47.612;18.906;2022-08-25T02:40:13;19.00;99.90
24041;DHT22;12246;47.612;18.906;2022-08-25T02:43:06;19.00;99.90
24041;DHT22;12246;47.612;18.906;2022-08-25T02:45:58;19.00;99.90
24041;DHT22;12246;47.612;18.906;2022-08-25T02:48:51;19.00;99.90
24041;DHT22;12246;47.612;18.906;2022-08-25T02:51:44;18.90;99.90
24041;DHT22;12246;47.612;18.906;2022-08-25T02:54:36;19.00;99.90
24041;DHT22;12246;47.612;18.906;2022-08-25T02:57:28;19.00;99.90
24041;DHT22;12246;47.612;18.906;2022-08-25T03:00:21;19.00;99.90
24041;DHT22;12246;47.612;18.906;2022-08-25T03:03:14;19.00;99.90
24041;DHT22;12246;47.612;18.906;2022-08-25T03:06:11;18.90;99.90
24041;DHT22;12246;47.612;18.906;2022-08-25T03:09:03;18.80;99.90
24041;DHT22;12246;47.612;18.906;2022-08-25T03:11:56;18.80;99.90
24041;DHT22;12246;47.612;18.906;2022-08-25T03:14:48;18.80;99.90
24041;DHT22;12246;47.612;18.906;2022-08-25T03:17:45;18.80;99.90
24041;DHT22;12246;47.612;18.906;2022-08-25T03:20:41;18.80;99.90
24041;DHT22;12246;47.612;18.906;2022-08-25T03:23:34;18.80;99.90
24041;DHT22;12246;47.612;18.906;2022-08-25T03:26:26;18.80;99.90
24041;DHT22;12246;47.612;18.906;2022-08-25T03:29:37;18.80;99.90
24041;DHT22;12246;47.612;18.906;2022-08-25T03:32:30;18.70;99.90
24041;DHT22;12246;47.612;18.906;2022-08-25T03:35:22;18.70;99.90
24041;DHT22;12246;47.612;18.906;2022-08-25T03:38:14;18.80;99.90
24041;DHT22;12246;47.612;18.906;2022-08-25T03:41:16;18.80;99.90
24041;DHT22;12246;47.612;18.906;2022-08-25T03:44:09;18.80;99.90
24041;DHT22;12246;47.612;18.906;2022-08-25T03:47:02;18.80;99.90
24041;DHT22;12246;47.612;18.906;2022-08-25T03:49:54;18.70;99.90
24041;DHT22;12246;47.612;18.906;2022-08-25T03:52:52;18.70;99.90
24041;DHT22;12246;47.612;18.906;2022-08-25T03:55:44;18.70;99.90
24041;DHT22;12246;47.612;18.906;2022-08-25T03:58:36;18.70;99.90
24041;DHT22;12246;47.612;18.906;2022-08-25T04:01:29;18.70;99.90
24041;DHT22;12246;47.612;18.906;2022-08-25T04:04:22;18.80;99.90
24041;DHT22;12246;47.612;18.906;2022-08-25T04:07:14;18.80;99.90
24041;DHT22;12246;47.612;18.906;2022-08-25T04:10:08;18.90;99.90
24041;DHT22;12246;47.612;18.906;2022-08-25T04:13:01;18.90;99.90
24041;DHT22;12246;47.612;18.906;2022-08-25T04:15:53;18.90;99.90
24041;DHT22;12246;47.612;18.906;2022-08-25T04:18:46;19.00;99.90
24041;DHT22;12246;47.612;18.906;2022-08-25T04:21:39;19.00;99.90
24041;DHT22;12246;47.612;18.906;2022-08-25T04:24:32;19.30;99.90
24041;DHT22;12246;47.612;18.906;2022-08-25T04:27:24;19.90;99.90
24041;DHT22;12246;47.612;18.906;2022-08-25T04:30:16;20.60;99.90
24041;DHT22;12246;47.612;18.906;2022-08-25T04:33:09;21.50;99.90
24041;DHT22;12246;47.612;18.906;2022-08-25T04:36:02;22.40;99.90
24041;DHT22;12246;47.612;18.906;2022-08-25T04:38:54;23.20;99.90
24041;DHT22;12246;47.612;18.906;2022-08-25T04:41:47;24.00;99.90
24041;DHT22;12246;47.612;18.906;2022-08-25T04:44:40;24.80;99.90
24041;DHT22;12246;47.612;18.906;2022-08-25T04:47:36;25.60;99.90
24041;DHT22;12246;47.612;18.906;2022-08-25T04:50:29;26.50;99.90
24041;DHT22;12246;47.612;18.906;2022-08-25T04:53:22;27.10;99.90
24041;DHT22;12246;47.612;18.906;2022-08-25T04:56:17;27.70;99.90
24041;DHT22;12246;47.612;18.906;2022-08-25T04:59:12;28.40;99.90
24041;DHT22;12246;47.612;18.906;2022-08-25T05:02:04;29.00;99.90
24041;DHT22;12246;47.612;18.906;2022-08-25T05:04:57;29.50;99.90
24041;DHT22;12246;47.612;18.906;2022-08-25T05:07:49;30.00;99.90
24041;DHT22;12246;47.612;18.906;2022-08-25T05:10:42;30.40;99.90
24041;DHT22;12246;47.612;18.906;2022-08-25T05:13:35;31.00;99.90
24041;DHT22;12246;47.612;18.906;2022-08-25T05:16:28;31.80;99.90
24041;DHT22;12246;47.612;18.906;2022-08-25T05:19:21;32.20;99.90
24041;DHT22;12246;47.612;18.906;2022-08-25T05:22:14;32.30;99.90
24041;DHT22;12246;47.612;18.906;2022-08-25T05:25:07;32.10;99.90
24041;DHT22;12246;47.612;18.906;2022-08-25T05:27:59;32.10;99.90
24041;DHT22;12246;47.612;18.906;2022-08-25T05:30:57;32.10;99.90
24041;DHT22;12246;47.612;18.906;2022-08-25T05:33:50;32.30;99.90
24041;DHT22;12246;47.612;18.906;2022-08-25T05:36:43;32.50;99.90
24041;DHT22;12246;47.612;18.906;2022-08-25T05:39:35;32.50;99.90
24041;DHT22;12246;47.612;18.906;2022-08-25T05:42:27;32.40;99.90
24041;DHT22;12246;47.612;18.906;2022-08-25T05:45:20;32.40;99.90
24041;DHT22;12246;47.612;18.906;2022-08-25T05:48:12;32.30;99.90
24041;DHT22;12246;47.612;18.906;2022-08-25T05:51:09;32.20;99.90
24041;DHT22;12246;47.612;18.906;2022-08-25T05:54:03;31.40;99.90
24041;DHT22;12246;47.612;18.906;2022-08-25T05:56:56;29.80;99.90
24041;DHT22;12246;47.612;18.906;2022-08-25T05:59:50;29.60;99.90
24041;DHT22;12246;47.612;18.906;2022-08-25T06:02:42;29.80;99.90
24041;DHT22;12246;47.612;18.906;2022-08-25T06:05:35;30.20;99.90
24041;DHT22;12246;47.612;18.906;2022-08-25T06:08:27;30.60;99.90
24041;DHT22;12246;47.612;18.906;2022-08-25T06:11:23;30.70;99.90
24041;DHT22;12246;47.612;18.906;2022-08-25T06:14:15;30.60;99.90
24041;DHT22;12246;47.612;18.906;2022-08-25T06:17:08;30.50;99.90
24041;DHT22;12246;47.612;18.906;2022-08-25T06:20:00;30.30;99.90
24041;DHT22;12246;47.612;18.906;2022-08-25T06:22:55;30.40;99.90
24041;DHT22;12246;47.612;18.906;2022-08-25T06:25:52;30.70;99.90
24041;DHT22;12246;47.612;18.906;2022-08-25T06:28:44;30.90;99.90
24041;DHT22;12246;47.612;18.906;2022-08-25T06:31:36;30.80;99.90
24041;DHT22;12246;47.612;18.906;2022-08-25T06:34:28;31.00;99.90
24041;DHT22;12246;47.612;18.906;2022-08-25T06:37:21;31.00;99.90
24041;DHT22;12246;47.612;18.906;2022-08-25T06:40:16;31.00;99.90
24041;DHT22;12246;47.612;18.906;2022-08-25T06:43:08;30.40;99.90
24041;DHT22;12246;47.612;18.906;2022-08-25T06:46:12;30.60;99.90
24041;DHT22;12246;47.612;18.906;2022-08-25T06:49:05;30.60;99.90
24041;DHT22;12246;47.612;18.906;2022-08-25T06:51:58;30.70;99.90
24041;DHT22;12246;47.612;18.906;2022-08-25T06:54:50;30.60;99.90
24041;DHT22;12246;47.612;18.906;2022-08-25T06:57:44;30.50;99.90
24041;DHT22;12246;47.612;18.906;2022-08-25T07:00:36;30.70;99.90
24041;DHT22;12246;47.612;18.906;2022-08-25T07:03:29;30.80;99.90
24041;DHT22;12246;47.612;18.906;2022-08-25T07:06:23;30.60;99.90
24041;DHT22;12246;47.612;18.906;2022-08-25T07:09:15;30.80;99.90
24041;DHT22;12246;47.612;18.906;2022-08-25T07:12:08;30.90;99.90
24041;DHT22;12246;47.612;18.906;2022-08-25T07:15:07;30.70;99.90
24041;DHT22;12246;47.612;18.906;2022-08-25T07:18:13;30.70;99.90
24041;DHT22;12246;47.612;18.906;2022-08-25T07:21:06;30.80;99.90
24041;DHT22;12246;47.612;18.906;2022-08-25T07:24:00;30.30;99.90
24041;DHT22;12246;47.612;18.906;2022-08-25T07:26:54;30.60;99.90
24041;DHT22;12246;47.612;18.906;2022-08-25T07:29:46;31.40;99.90
24041;DHT22;12246;47.612;18.906;2022-08-25T07:32:40;31.60;99.90
24041;DHT22;12246;47.612;18.906;2022-08-25T07:35:34;31.10;99.90
24041;DHT22;12246;47.612;18.906;2022-08-25T07:38:28;30.50;99.90
24041;DHT22;12246;47.612;18.906;2022-08-25T07:41:21;30.20;99.90
24041;DHT22;12246;47.612;18.906;2022-08-25T07:44:13;30.40;99.90
24041;DHT22;12246;47.612;18.906;2022-08-25T07:47:06;30.20;99.90
24041;DHT22;12246;47.612;18.906;2022-08-25T07:49:58;29.80;99.90
24041;DHT22;12246;47.612;18.906;2022-08-25T07:52:51;29.80;99.90
24041;DHT22;12246;47.612;18.906;2022-08-25T07:55:46;30.30;99.90
24041;DHT22;12246;47.612;18.906;2022-08-25T07:58:39;30.70;99.90
24041;DHT22;12246;47.612;18.906;2022-08-25T08:01:31;30.80;99.90
24041;DHT22;12246;47.612;18.906;2022-08-25T08:04:24;31.40;99.90
24041;DHT22;12246;47.612;18.906;2022-08-25T08:07:22;32.10;99.90
24041;DHT22;12246;47.612;18.906;2022-08-25T08:10:32;31.70;99.90
24041;DHT22;12246;47.612;18.906;2022-08-25T08:13:46;31.10;99.90
24041;DHT22;12246;47.612;18.906;2022-08-25T08:16:41;31.30;99.90
24041;DHT22;12246;47.612;18.906;2022-08-25T08:19:35;31.40;99.90
24041;DHT22;12246;47.612;18.906;2022-08-25T08:22:27;31.70;99.90
24041;DHT22;12246;47.612;18.906;2022-08-25T08:25:20;31.40;99.90
24041;DHT22;12246;47.612;18.906;2022-08-25T08:28:18;31.20;99.90
24041;DHT22;12246;47.612;18.906;2022-08-25T08:31:11;30.80;99.90
24041;DHT22;12246;47.612;18.906;2022-08-25T08:34:03;31.60;99.90
24041;DHT22;12246;47.612;18.906;2022-08-25T08:36:56;31.80;99.90
24041;DHT22;12246;47.612;18.906;2022-08-25T08:39:48;31.50;99.90
24041;DHT22;12246;47.612;18.906;2022-08-25T08:45:51;31.60;99.90
24041;DHT22;12246;47.612;18.906;2022-08-25T08:49:00;31.60;99.90
24041;DHT22;12246;47.612;18.906;2022-08-25T08:51:58;31.50;99.90
24041;DHT22;12246;47.612;18.906;2022-08-25T08:54:59;31.60;99.90
24041;DHT22;12246;47.612;18.906;2022-08-25T08:57:59;32.10;99.90
24041;DHT22;12246;47.612;18.906;2022-08-25T09:00:55;32.40;99.90
24041;DHT22;12246;47.612;18.906;2022-08-25T09:07:15;32.30;99.40
24041;DHT22;12246;47.612;18.906;2022-08-25T09:10:11;31.70;99.20
24041;DHT22;12246;47.612;18.906;2022-08-25T09:23:09;32.60;99.90
24041;DHT22;12246;47.612;18.906;2022-08-25T09:29:20;31.60;98.80
24041;DHT22;12246;47.612;18.906;2022-08-25T09:32:16;31.60;98.80
24041;DHT22;12246;47.612;18.906;2022-08-25T09:35:28;31.80;98.10
24041;DHT22;12246;47.612;18.906;2022-08-25T09:38:22;31.80;98.00
24041;DHT22;12246;47.612;18.906;2022-08-25T09:41:16;31.60;97.40
24041;DHT22;12246;47.612;18.906;2022-08-25T09:44:41;31.60;96.70
24041;DHT22;12246;47.612;18.906;2022-08-25T09:47:41;32.20;98.50
24041;DHT22;12246;47.612;18.906;2022-08-25T09:50:35;32.80;98.20
24041;DHT22;12246;47.612;18.906;2022-08-25T09:53:28;33.00;95.90
24041;DHT22;12246;47.612;18.906;2022-08-25T09:56:27;32.90;96.30
24041;DHT22;12246;47.612;18.906;2022-08-25T09:59:31;33.20;96.70
24041;DHT22;12246;47.612;18.906;2022-08-25T10:02:28;33.20;95.50
24041;DHT22;12246;47.612;18.906;2022-08-25T10:05:24;33.20;96.50
24041;DHT22;12246;47.612;18.906;2022-08-25T10:08:38;33.30;96.20
24041;DHT22;12246;47.612;18.906;2022-08-25T10:11:38;33.00;93.80
24041;DHT22;12246;47.612;18.906;2022-08-25T10:14:32;32.50;94.80
24041;DHT22;12246;47.612;18.906;2022-08-25T10:17:31;32.70;95.40
24041;DHT22;12246;47.612;18.906;2022-08-25T10:20:26;32.80;95.30
24041;DHT22;12246;47.612;18.906;2022-08-25T10:23:26;32.90;94.20
24041;DHT22;12246;47.612;18.906;2022-08-25T10:26:31;33.00;96.20
24041;DHT22;12246;47.612;18.906;2022-08-25T10:38:43;32.30;95.20
24041;DHT22;12246;47.612;18.906;2022-08-25T10:41:48;32.20;95.20
24041;DHT22;12246;47.612;18.906;2022-08-25T10:51:45;33.00;93.90
24041;DHT22;12246;47.612;18.906;2022-08-25T10:55:06;33.10;93.40
24041;DHT22;12246;47.612;18.906;2022-08-25T11:05:24;32.80;93.60
24041;DHT22;12246;47.612;18.906;2022-08-25T11:11:31;32.30;93.30
24041;DHT22;12246;47.612;18.906;2022-08-25T11:14:31;32.40;93.10
24041;DHT22;12246;47.612;18.906;2022-08-25T11:17:37;32.40;93.60
24041;DHT22;12246;47.612;18.906;2022-08-25T11:20:39;32.50;93.40
24041;DHT22;12246;47.612;18.906;2022-08-25T11:24:00;32.10;93.70
24041;DHT22;12246;47.612;18.906;2022-08-25T11:26:57;31.50;94.70
24041;DHT22;12246;47.612;18.906;2022-08-25T11:30:09;31.30;94.80
24041;DHT22;12246;47.612;18.906;2022-08-25T11:33:02;31.20;95.60
24041;DHT22;12246;47.612;18.906;2022-08-25T11:55:47;32.30;97.00
24041;DHT22;12246;47.612;18.906;2022-08-25T11:58:52;32.00;98.20
24041;DHT22;12246;47.612;18.906;2022-08-25T12:01:59;31.60;95.20
24041;DHT22;12246;47.612;18.906;2022-08-25T12:04:54;31.10;97.60
24041;DHT22;12246;47.612;18.906;2022-08-25T12:11:05;31.00;99.90
24041;DHT22;12246;47.612;18.906;2022-08-25T12:17:22;31.50;99.30
24041;DHT22;12246;47.612;18.906;2022-08-25T12:20:15;31.30;97.30
24041;DHT22;12246;47.612;18.906;2022-08-25T12:23:07;31.30;98.30
24041;DHT22;12246;47.612;18.906;2022-08-25T12:26:12;31.50;99.20
24041;DHT22;12246;47.612;18.906;2022-08-25T12:38:36;31.20;98.00
24041;DHT22;12246;47.612;18.906;2022-08-25T12:41:35;31.30;97.70
24041;DHT22;12246;47.612;18.906;2022-08-25T12:44:45;31.40;99.30
24041;DHT22;12246;47.612;18.906;2022-08-25T12:47:44;31.20;99.90
24041;DHT22;12246;47.612;18.906;2022-08-25T12:50:41;31.20;99.90
24041;DHT22;12246;47.612;18.906;2022-08-25T12:53:45;31.10;99.90
24041;DHT22;12246;47.612;18.906;2022-08-25T12:56:46;31.20;99.40
24041;DHT22;12246;47.612;18.906;2022-08-25T12:59:41;31.00;98.50
24041;DHT22;12246;47.612;18.906;2022-08-25T13:16:38;31.20;99.90
24041;DHT22;12246;47.612;18.906;2022-08-25T13:19:30;31.30;99.90
24041;DHT22;12246;47.612;18.906;2022-08-25T13:22:26;31.40;99.60
24041;DHT22;12246;47.612;18.906;2022-08-25T13:25:23;31.40;98.70
24041;DHT22;12246;47.612;18.906;2022-08-25T13:28:30;31.10;99.40
24041;DHT22;12246;47.612;18.906;2022-08-25T13:31:23;31.00;99.30
24041;DHT22;12246;47.612;18.906;2022-08-25T13:34:25;31.00;99.10
24041;DHT22;12246;47.612;18.906;2022-08-25T13:37:25;31.10;99.70
24041;DHT22;12246;47.612;18.906;2022-08-25T13:40:27;31.10;99.40
24041;DHT22;12246;47.612;18.906;2022-08-25T13:43:20;31.20;99.90
24041;DHT22;12246;47.612;18.906;2022-08-25T13:46:20;31.40;99.50
24041;DHT22;12246;47.612;18.906;2022-08-25T13:49:24;31.30;99.90
24041;DHT22;12246;47.612;18.906;2022-08-25T13:52:25;31.20;99.90
24041;DHT22;12246;47.612;18.906;2022-08-25T13:55:56;30.70;99.20
24041;DHT22;12246;47.612;18.906;2022-08-25T13:58:50;30.50;99.90
24041;DHT22;12246;47.612;18.906;2022-08-25T14:01:44;30.40;99.90
24041;DHT22;12246;47.612;18.906;2022-08-25T14:07:56;30.80;99.90
24041;DHT22;12246;47.612;18.906;2022-08-25T14:11:26;31.00;99.90
24041;DHT22;12246;47.612;18.906;2022-08-25T14:17:16;30.90;99.90
24041;DHT22;12246;47.612;18.906;2022-08-25T14:20:31;30.80;99.90
24041;DHT22;12246;47.612;18.906;2022-08-25T14:23:26;30.80;99.90
24041;DHT22;12246;47.612;18.906;2022-08-25T14:26:19;30.80;99.90
24041;DHT22;12246;47.612;18.906;2022-08-25T14:29:13;30.60;99.90
24041;DHT22;12246;47.612;18.906;2022-08-25T14:32:06;30.60;99.90
24041;DHT22;12246;47.612;18.906;2022-08-25T14:35:00;30.60;99.90
24041;DHT22;12246;47.612;18.906;2022-08-25T14:38:08;30.50;99.90
24041;DHT22;12246;47.612;18.906;2022-08-25T14:41:00;30.50;99.90
24041;DHT22;12246;47.612;18.906;2022-08-25T14:43:53;30.40;99.90
24041;DHT22;12246;47.612;18.906;2022-08-25T14:46:52;30.50;99.90
24041;DHT22;12246;47.612;18.906;2022-08-25T14:49:46;30.40;99.90
24041;DHT22;12246;47.612;18.906;2022-08-25T14:52:40;30.40;99.90
24041;DHT22;12246;47.612;18.906;2022-08-25T14:55:35;30.40;99.90
24041;DHT22;12246;47.612;18.906;2022-08-25T14:58:27;30.40;99.90
24041;DHT22;12246;47.612;18.906;2022-08-25T15:01:25;30.30;99.90
24041;DHT22;12246;47.612;18.906;2022-08-25T15:04:24;30.40;99.90
24041;DHT22;12246;47.612;18.906;2022-08-25T15:07:18;30.20;99.90
24041;DHT22;12246;47.612;18.906;2022-08-25T15:10:30;30.20;99.90
24041;DHT22;12246;47.612;18.906;2022-08-25T15:13:24;30.20;99.90
24041;DHT22;12246;47.612;18.906;2022-08-25T15:16:31;30.30;99.90
24041;DHT22;12246;47.612;18.906;2022-08-25T15:19:26;30.40;99.90
24041;DHT22;12246;47.612;18.906;2022-08-25T15:22:19;30.20;99.90
24041;DHT22;12246;47.612;18.906;2022-08-25T15:25:11;30.10;99.90
24041;DHT22;12246;47.612;18.906;2022-08-25T15:28:06;30.20;99.90
24041;DHT22;12246;47.612;18.906;2022-08-25T15:31:01;30.00;99.90
24041;DHT22;12246;47.612;18.906;2022-08-25T15:33:54;30.00;99.90
24041;DHT22;12246;47.612;18.906;2022-08-25T15:36:46;29.80;99.90
24041;DHT22;12246;47.612;18.906;2022-08-25T15:39:40;29.70;99.90
24041;DHT22;12246;47.612;18.906;2022-08-25T15:42:36;29.60;99.90
24041;DHT22;12246;47.612;18.906;2022-08-25T15:45:34;29.60;99.90
24041;DHT22;12246;47.612;18.906;2022-08-25T15:48:27;29.50;99.90
24041;DHT22;12246;47.612;18.906;2022-08-25T15:51:19;29.60;99.90
24041;DHT22;12246;47.612;18.906;2022-08-25T15:54:12;29.50;99.90
24041;DHT22;12246;47.612;18.906;2022-08-25T15:57:05;29.50;99.90
24041;DHT22;12246;47.612;18.906;2022-08-25T16:00:04;29.50;99.90
24041;DHT22;12246;47.612;18.906;2022-08-25T16:03:00;29.30;99.90
24041;DHT22;12246;47.612;18.906;2022-08-25T16:05:53;29.30;99.90
24041;DHT22;12246;47.612;18.906;2022-08-25T16:08:46;29.10;99.90
24041;DHT22;12246;47.612;18.906;2022-08-25T16:11:39;29.10;99.90
24041;DHT22;12246;47.612;18.906;2022-08-25T16:14:34;29.10;99.90
24041;DHT22;12246;47.612;18.906;2022-08-25T16:17:26;29.00;99.90
24041;DHT22;12246;47.612;18.906;2022-08-25T16:20:18;29.00;99.90
24041;DHT22;12246;47.612;18.906;2022-08-25T16:23:16;28.90;99.90
24041;DHT22;12246;47.612;18.906;2022-08-25T16:26:10;28.60;99.90
24041;DHT22;12246;47.612;18.906;2022-08-25T16:29:04;28.50;99.90
24041;DHT22;12246;47.612;18.906;2022-08-25T16:31:58;28.40;99.90
24041;DHT22;12246;47.612;18.906;2022-08-25T16:34:54;28.30;99.90
24041;DHT22;12246;47.612;18.906;2022-08-25T16:37:46;28.20;99.90
24041;DHT22;12246;47.612;18.906;2022-08-25T16:40:40;28.10;99.90
24041;DHT22;12246;47.612;18.906;2022-08-25T16:43:34;28.10;99.90
24041;DHT22;12246;47.612;18.906;2022-08-25T16:46:26;28.00;99.90
24041;DHT22;12246;47.612;18.906;2022-08-25T16:49:19;27.90;99.90
24041;DHT22;12246;47.612;18.906;2022-08-25T16:52:15;27.80;99.90
24041;DHT22;12246;47.612;18.906;2022-08-25T16:55:27;27.70;99.90
24041;DHT22;12246;47.612;18.906;2022-08-25T16:58:30;27.60;99.90
24041;DHT22;12246;47.612;18.906;2022-08-25T17:01:25;27.50;99.90
24041;DHT22;12246;47.612;18.906;2022-08-25T17:04:19;27.40;99.90
24041;DHT22;12246;47.612;18.906;2022-08-25T17:07:11;27.30;99.90
24041;DHT22;12246;47.612;18.906;2022-08-25T17:10:04;27.20;99.90
24041;DHT22;12246;47.612;18.906;2022-08-25T17:13:04;27.10;99.90
24041;DHT22;12246;47.612;18.906;2022-08-25T17:15:56;27.10;99.90
24041;DHT22;12246;47.612;18.906;2022-08-25T17:18:49;27.00;99.90
24041;DHT22;12246;47.612;18.906;2022-08-25T17:21:43;27.00;99.90
24041;DHT22;12246;47.612;18.906;2022-08-25T17:24:36;26.90;99.90
24041;DHT22;12246;47.612;18.906;2022-08-25T17:27:31;26.90;99.90
24041;DHT22;12246;47.612;18.906;2022-08-25T17:30:23;26.80;99.90
24041;DHT22;12246;47.612;18.906;2022-08-25T17:33:17;26.80;99.90
24041;DHT22;12246;47.612;18.906;2022-08-25T17:36:15;26.70;99.90
24041;DHT22;12246;47.612;18.906;2022-08-25T17:39:11;26.60;99.90
24041;DHT22;12246;47.612;18.906;2022-08-25T17:42:05;26.50;99.90
24041;DHT22;12246;47.612;18.906;2022-08-25T17:44:57;26.50;99.90
24041;DHT22;12246;47.612;18.906;2022-08-25T17:47:51;26.50;99.90
24041;DHT22;12246;47.612;18.906;2022-08-25T17:50:45;26.30;99.90
24041;DHT22;12246;47.612;18.906;2022-08-25T17:53:37;26.20;99.90
24041;DHT22;12246;47.612;18.906;2022-08-25T17:56:29;26.00;99.90
24041;DHT22;12246;47.612;18.906;2022-08-25T17:59:23;25.90;99.90
24041;DHT22;12246;47.612;18.906;2022-08-25T18:02:15;25.90;99.90
24041;DHT22;12246;47.612;18.906;2022-08-25T18:05:08;25.80;99.90
24041;DHT22;12246;47.612;18.906;2022-08-25T18:08:00;25.70;99.90
24041;DHT22;12246;47.612;18.906;2022-08-25T18:10:54;25.50;99.90
24041;DHT22;12246;47.612;18.906;2022-08-25T18:13:47;25.50;99.90
24041;DHT22;12246;47.612;18.906;2022-08-25T18:16:41;25.50;99.90
24041;DHT22;12246;47.612;18.906;2022-08-25T18:19:33;25.40;99.90
24041;DHT22;12246;47.612;18.906;2022-08-25T18:22:25;25.40;99.90
24041;DHT22;12246;47.612;18.906;2022-08-25T18:25:19;25.30;99.90
24041;DHT22;12246;47.612;18.906;2022-08-25T18:28:12;25.20;99.90
24041;DHT22;12246;47.612;18.906;2022-08-25T18:31:05;25.30;99.90
24041;DHT22;12246;47.612;18.906;2022-08-25T18:33:57;25.30;99.90
24041;DHT22;12246;47.612;18.906;2022-08-25T18:36:50;25.30;99.90
24041;DHT22;12246;47.612;18.906;2022-08-25T18:39:43;25.30;99.90
24041;DHT22;12246;47.612;18.906;2022-08-25T18:42:57;25.20;99.90
24041;DHT22;12246;47.612;18.906;2022-08-25T18:45:50;25.20;99.90
24041;DHT22;12246;47.612;18.906;2022-08-25T18:48:44;25.10;99.90
24041;DHT22;12246;47.612;18.906;2022-08-25T18:51:37;25.10;99.90
24041;DHT22;12246;47.612;18.906;2022-08-25T18:54:29;25.00;99.90
24041;DHT22;12246;47.612;18.906;2022-08-25T18:57:21;25.00;99.90
24041;DHT22;12246;47.612;18.906;2022-08-25T19:00:17;25.00;99.90
24041;DHT22;12246;47.612;18.906;2022-08-25T19:03:10;24.90;99.90
24041;DHT22;12246;47.612;18.906;2022-08-25T19:06:03;25.00;99.90
24041;DHT22;12246;47.612;18.906;2022-08-25T19:08:56;25.00;99.90
24041;DHT22;12246;47.612;18.906;2022-08-25T19:11:48;25.00;99.90
24041;DHT22;12246;47.612;18.906;2022-08-25T19:14:41;24.90;99.90
24041;DHT22;12246;47.612;18.906;2022-08-25T19:17:33;24.90;99.90
24041;DHT22;12246;47.612;18.906;2022-08-25T19:20:28;24.90;99.90
24041;DHT22;12246;47.612;18.906;2022-08-25T19:23:21;24.80;99.90
24041;DHT22;12246;47.612;18.906;2022-08-25T19:26:13;24.80;99.90
24041;DHT22;12246;47.612;18.906;2022-08-25T19:29:11;24.70;99.90
24041;DHT22;12246;47.612;18.906;2022-08-25T19:32:04;24.70;99.90
24041;DHT22;12246;47.612;18.906;2022-08-25T19:34:57;24.60;99.90
24041;DHT22;12246;47.612;18.906;2022-08-25T19:37:50;24.50;99.90
24041;DHT22;12246;47.612;18.906;2022-08-25T19:40:43;24.50;99.90
24041;DHT22;12246;47.612;18.906;2022-08-25T19:43:36;24.50;99.90
24041;DHT22;12246;47.612;18.906;2022-08-25T19:46:33;24.40;99.90
24041;DHT22;12246;47.612;18.906;2022-08-25T19:49:29;24.30;99.90
24041;DHT22;12246;47.612;18.906;2022-08-25T19:52:23;24.30;99.90